createdAt,value
2022-08-09T00:00:05.829Z,4.63
2022-08-09T00:02:49.186Z,6.15
2022-08-09T00:06:17.602Z,4.88
2022-08-09T00:08:09.931Z,7.03
2022-08-09T00:10:40.116Z,5.82
2022-08-09T00:13:17.237Z,6.30
2022-08-09T00:15:59.508Z,8.43
2022-08-09T00:18:34.866Z,5.60
2022-08-09T00:21:08.600Z,5.95
2022-08-09T00:23:56.331Z,7.78
2022-08-09T00:26:29.988Z,7.22
2022-08-09T00:29:02.553Z,5.50
2022-08-09T00:31:59.833Z,7.47
2022-08-09T00:34:19.727Z,7.72
2022-08-09T00:36:52.093Z,7.90
2022-08-09T00:44:10.711Z,5.35
2022-08-09T00:44:55.675Z,5.00
2022-08-09T00:47:24.962Z,9.32
2022-08-09T00:49:56.730Z,6.40
2022-08-09T00:52:28.089Z,6.60
2022-08-09T00:55:02.364Z,6.32
2022-08-09T00:57:34.342Z,9.13
2022-08-09T01:00:21.540Z,7.03
2022-08-09T01:03:14.856Z,4.93
2022-08-09T01:05:55.418Z,7.20
2022-08-09T01:08:45.656Z,5.35
2022-08-09T01:11:55.905Z,6.18
2022-08-09T01:14:46.268Z,4.32
2022-08-09T01:17:30.695Z,5.65
2022-08-09T01:20:08.686Z,6.72
2022-08-09T01:24:01.930Z,5.65
2022-08-09T01:26:22.006Z,7.90
2022-08-09T01:28:53.524Z,6.50
2022-08-09T01:32:30.379Z,7.03
2022-08-09T01:34:18.453Z,6.50
2022-08-09T01:36:50.154Z,5.95
2022-08-09T01:39:19.120Z,5.75
2022-08-09T01:41:53.437Z,5.20
2022-08-09T01:44:25.455Z,7.00
2022-08-09T01:46:53.827Z,4.25
2022-08-09T01:49:24.355Z,5.07
2022-08-09T01:52:07.422Z,4.90
2022-08-09T01:54:46.585Z,5.70
2022-08-09T01:57:24.426Z,6.15
2022-08-09T02:00:00.265Z,5.30
2022-08-09T02:02:32.038Z,5.65
2022-08-09T02:08:35.515Z,6.70
2022-08-09T02:10:30.469Z,4.80
2022-08-09T02:13:03.179Z,8.48
2022-08-09T02:15:36.171Z,6.15
2022-08-09T02:18:19.855Z,6.53
2022-08-09T02:20:55.897Z,4.45
2022-08-09T02:23:46.870Z,15.75
2022-08-09T02:26:24.988Z,5.40
2022-08-09T02:28:59.974Z,7.78
2022-08-09T02:31:39.429Z,5.25
2022-08-09T02:34:25.807Z,4.85
2022-08-09T02:37:12.326Z,6.57
2022-08-09T02:39:49.999Z,6.13
2022-08-09T02:42:34.015Z,7.18
2022-08-09T02:45:06.663Z,4.90
2022-08-09T02:47:57.654Z,6.05
2022-08-09T02:50:29.401Z,8.32
2022-08-09T02:53:10.680Z,5.63
2022-08-09T02:55:58.480Z,6.35
2022-08-09T02:58:35.727Z,6.47
2022-08-09T03:01:08.004Z,7.93
2022-08-09T03:04:16.962Z,5.57
2022-08-09T03:06:29.186Z,4.30
2022-08-09T03:08:58.779Z,4.65
2022-08-09T03:12:06.749Z,4.97
2022-08-09T03:14:17.109Z,6.20
2022-08-09T03:16:48.137Z,6.05
2022-08-09T03:19:59.617Z,5.18
2022-08-09T03:22:12.334Z,5.95
2022-08-09T03:25:00.280Z,9.93
2022-08-09T03:27:45.481Z,6.57
2022-08-09T03:30:29.268Z,7.03
2022-08-09T03:33:05.701Z,6.25
2022-08-09T03:35:44.379Z,6.13
2022-08-09T03:38:30.477Z,6.75
2022-08-09T03:40:58.417Z,7.95
2022-08-09T03:43:31.799Z,7.68
2022-08-09T03:46:05.113Z,7.07
2022-08-09T03:48:55.201Z,8.15
2022-08-09T03:51:57.326Z,7.43
2022-08-09T03:54:13.611Z,5.53
2022-08-09T03:56:42.088Z,6.35
2022-08-09T03:59:13.668Z,6.45
2022-08-09T04:01:50.516Z,8.38
2022-08-09T04:04:18.448Z,8.13
2022-08-09T04:06:48.923Z,6.57
2022-08-09T04:09:47.445Z,6.20
2022-08-09T04:12:30.895Z,8.43
2022-08-09T04:15:01.889Z,6.55
2022-08-09T04:17:30.106Z,7.82
2022-08-09T04:20:02.600Z,6.68
2022-08-09T04:22:31.899Z,7.82
2022-08-09T04:25:00.084Z,6.28
2022-08-09T04:27:29.019Z,8.52
2022-08-09T04:29:56.811Z,8.45
2022-08-09T04:32:31.642Z,6.78
2022-08-09T04:35:06.027Z,5.20
2022-08-09T04:37:45.156Z,7.80
2022-08-09T04:40:19.077Z,8.43
2022-08-09T04:42:48.457Z,7.05
2022-08-09T04:45:20.610Z,5.97
2022-08-09T04:48:01.123Z,7.75
2022-08-09T04:50:31.908Z,6.60
2022-08-09T04:53:02.781Z,8.38
2022-08-09T04:55:38.923Z,7.65
2022-08-09T04:58:09.497Z,8.93
2022-08-09T05:00:37.333Z,7.38
2022-08-09T05:03:30.141Z,6.22
2022-08-09T05:06:04.497Z,6.63
2022-08-09T05:08:35.243Z,6.63
2022-08-09T05:11:02.879Z,9.07
2022-08-09T05:13:33.108Z,7.03
2022-08-09T05:16:01.607Z,9.07
2022-08-09T05:18:38.288Z,7.97
2022-08-09T05:21:24.530Z,7.45
2022-08-09T05:23:56.965Z,8.30
2022-08-09T05:26:36.755Z,9.70
2022-08-09T05:29:21.472Z,7.40
2022-08-09T05:31:56.366Z,6.20
2022-08-09T05:34:31.067Z,7.25
2022-08-09T05:37:06.783Z,7.95
2022-08-09T05:39:42.397Z,7.05
2022-08-09T05:42:18.024Z,8.90
2022-08-09T05:44:54.369Z,8.65
2022-08-09T05:47:23.775Z,8.98
2022-08-09T05:50:32.361Z,9.15
2022-08-09T05:52:41.934Z,6.97
2022-08-09T05:55:21.177Z,8.90
2022-08-09T05:57:57.403Z,7.95
2022-08-09T06:00:28.980Z,9.02
2022-08-09T06:02:58.547Z,8.45
2022-08-09T06:05:50.145Z,9.20
2022-08-09T06:08:19.473Z,9.45
2022-08-09T06:10:53.481Z,11.57
2022-08-09T06:13:21.172Z,9.23
2022-08-09T06:15:51.336Z,11.73
2022-08-09T06:18:24.973Z,9.90
2022-08-09T06:20:57.360Z,6.43
2022-08-09T06:23:54.976Z,7.40
2022-08-09T06:26:20.570Z,7.45
2022-08-09T06:29:00.282Z,8.52
2022-08-09T06:31:30.756Z,9.07
2022-08-09T06:33:59.258Z,6.75
2022-08-09T06:36:27.312Z,7.28
2022-08-09T06:38:57.835Z,7.03
2022-08-09T06:42:07.984Z,8.00
2022-08-09T06:44:18.035Z,7.05
2022-08-09T06:49:22.795Z,6.93
2022-08-09T06:52:00.580Z,7.38
2022-08-09T06:54:28.124Z,7.93
2022-08-09T06:56:55.831Z,7.32
2022-08-09T07:00:50.317Z,9.02
2022-08-09T07:02:11.183Z,6.93
2022-08-09T07:04:44.014Z,6.55
2022-08-09T07:07:12.261Z,6.57
2022-08-09T07:10:14.285Z,4.85
2022-08-09T07:12:57.010Z,5.50
2022-08-09T07:16:35.399Z,6.28
2022-08-09T07:18:14.201Z,6.45
2022-08-09T07:20:43.756Z,5.60
2022-08-09T07:23:18.557Z,4.78
2022-08-09T07:25:52.491Z,5.45
2022-08-09T07:28:34.727Z,6.15
2022-08-09T07:31:05.055Z,5.78
2022-08-09T07:33:52.742Z,7.20
2022-08-09T07:36:21.012Z,5.38
2022-08-09T07:38:56.777Z,7.20
2022-08-09T07:41:26.772Z,7.57
2022-08-09T07:43:56.347Z,4.80
2022-08-09T07:46:27.628Z,5.18
2022-08-09T07:48:59.638Z,4.95
2022-08-09T07:52:04.384Z,4.90
2022-08-09T07:54:27.626Z,4.65
2022-08-09T07:56:55.643Z,4.03
2022-08-09T07:59:25.503Z,6.30
2022-08-09T08:02:02.858Z,5.35
2022-08-09T08:04:31.844Z,4.75
2022-08-09T08:07:14.716Z,5.32
2022-08-09T08:09:53.459Z,4.45
2022-08-09T08:12:32.078Z,4.68
2022-08-09T08:14:59.587Z,5.28
2022-08-09T08:17:35.105Z,6.63
2022-08-09T08:20:15.122Z,5.82
2022-08-09T08:22:42.373Z,5.95
2022-08-09T08:25:13.633Z,7.05
2022-08-09T08:27:43.031Z,6.43
2022-08-09T08:30:14.405Z,4.88
2022-08-09T08:32:52.143Z,5.80
2022-08-09T08:35:22.471Z,6.63
2022-08-09T08:38:02.081Z,4.68
2022-08-09T08:40:33.688Z,4.80
2022-08-09T08:43:08.697Z,3.63
2022-08-09T08:46:03.975Z,4.45
2022-08-09T08:48:51.373Z,5.72
2022-08-09T08:51:19.616Z,4.35
2022-08-09T08:54:03.503Z,4.57
2022-08-09T08:56:37.748Z,3.97
2022-08-09T08:59:19.243Z,5.22
2022-08-09T09:01:53.264Z,4.32
2022-08-09T09:04:31.969Z,5.43
2022-08-09T09:07:10.504Z,4.50
2022-08-09T09:09:58.703Z,5.60
2022-08-09T09:12:29.943Z,4.22
2022-08-09T09:15:00.804Z,6.35
2022-08-09T09:17:48.495Z,4.18
2022-08-09T09:20:16.755Z,4.65
2022-08-09T09:23:14.070Z,5.00
2022-08-09T09:26:04.878Z,5.57
2022-08-09T09:29:01.959Z,5.60
2022-08-09T09:32:03.449Z,4.63
2022-08-09T09:34:14.723Z,6.38
2022-08-09T09:36:51.179Z,3.97
2022-08-09T09:39:55.056Z,7.78
2022-08-09T09:42:27.965Z,7.55
2022-08-09T09:45:06.352Z,3.60
2022-08-09T09:47:47.657Z,4.93
2022-08-09T09:50:49.331Z,3.65
2022-08-09T09:53:21.498Z,5.10
2022-08-09T09:56:04.311Z,4.72
2022-08-09T09:58:47.976Z,3.72
2022-08-09T10:01:37.792Z,4.30
2022-08-09T10:04:22.779Z,6.32
2022-08-09T10:09:26.223Z,6.72
2022-08-09T10:12:14.598Z,4.97
2022-08-09T10:14:48.852Z,5.00
2022-08-09T10:17:54.875Z,5.68
2022-08-09T10:20:32.096Z,4.97
2022-08-09T10:23:21.991Z,3.88
2022-08-09T10:26:07.497Z,4.60
2022-08-09T10:28:40.314Z,5.13
2022-08-09T10:34:11.105Z,2.97
2022-08-09T10:36:56.970Z,3.13
2022-08-09T10:39:26.904Z,4.65
2022-08-09T10:41:56.197Z,3.07
2022-08-09T10:44:28.637Z,3.97
2022-08-09T10:47:00.925Z,3.85
2022-08-09T10:49:51.280Z,5.97
2022-08-09T10:52:42.851Z,3.45
2022-08-09T10:55:54.988Z,3.15
2022-08-09T10:58:34.743Z,3.28
2022-08-09T11:03:02.734Z,8.15
2022-08-09T11:04:20.051Z,4.18
2022-08-09T11:07:00.009Z,6.53
2022-08-09T11:09:47.628Z,11.52
2022-08-09T11:12:26.408Z,4.50
2022-08-09T11:15:19.074Z,3.83
2022-08-09T11:17:53.400Z,5.07
2022-08-09T11:20:40.245Z,5.25
2022-08-09T11:23:10.344Z,4.00
2022-08-09T11:25:47.356Z,3.42
2022-08-09T11:28:34.678Z,6.50
2022-08-09T11:31:52.799Z,4.50
2022-08-09T11:34:42.893Z,3.25
2022-08-09T11:37:22.923Z,3.38
2022-08-09T11:40:10.577Z,4.38
2022-08-09T11:42:49.456Z,4.65
2022-08-09T11:45:22.736Z,4.22
2022-08-09T11:47:59.957Z,6.13
2022-08-09T11:52:49.360Z,3.53
2022-08-09T11:54:00.603Z,4.43
2022-08-09T11:56:41.394Z,5.30
2022-08-09T11:59:30.228Z,3.67
2022-08-09T12:02:17.185Z,2.97
2022-08-09T12:04:58.207Z,4.25
2022-08-09T12:07:34.415Z,5.38
2022-08-09T12:10:14.377Z,3.33
2022-08-09T12:12:58.510Z,3.45
2022-08-09T12:15:50.107Z,8.05
2022-08-09T12:18:29.829Z,6.95
2022-08-09T12:23:56.394Z,3.55
2022-08-09T12:26:25.418Z,3.53
2022-08-09T12:29:11.528Z,3.42
2022-08-09T12:32:01.949Z,5.03
2022-08-09T12:34:39.933Z,7.60
2022-08-09T12:37:21.670Z,4.80
2022-08-09T12:40:12.283Z,5.55
2022-08-09T12:42:44.733Z,7.25
2022-08-09T12:45:33.706Z,4.53
2022-08-09T12:48:00.660Z,7.65
2022-08-09T12:50:28.708Z,3.28
2022-08-09T12:53:09.130Z,5.28
2022-08-09T12:56:15.385Z,5.72
2022-08-09T12:58:31.400Z,2.83
2022-08-09T13:00:59.246Z,3.13
2022-08-09T13:03:52.582Z,6.10
2022-08-09T13:06:35.583Z,3.65
2022-08-09T13:09:24.147Z,2.97
2022-08-09T13:12:01.961Z,4.20
2022-08-09T13:14:42.915Z,3.05
2022-08-09T13:17:43.926Z,3.00
2022-08-09T13:20:18.717Z,4.27
2022-08-09T13:23:05.564Z,3.25
2022-08-09T13:25:42.576Z,6.15
2022-08-09T13:28:24.521Z,3.38
2022-08-09T13:32:15.021Z,4.15
2022-08-09T13:33:59.308Z,4.32
2022-08-09T13:36:40.726Z,4.50
2022-08-09T13:41:19.534Z,7.13
2022-08-09T13:42:12.286Z,3.07
2022-08-09T13:44:43.148Z,4.18
2022-08-09T13:47:31.347Z,3.63
2022-08-09T13:50:29.915Z,4.90
2022-08-09T13:52:58.225Z,3.80
2022-08-09T13:55:29.089Z,3.63
2022-08-09T13:57:59.614Z,5.00
2022-08-09T14:00:29.298Z,3.60
2022-08-09T14:03:04.499Z,4.60
2022-08-09T14:05:59.122Z,3.08
2022-08-09T14:08:31.402Z,3.90
2022-08-09T14:11:00.180Z,4.72
2022-08-09T14:14:23.568Z,3.80
2022-08-09T14:16:20.057Z,4.68
2022-08-09T14:18:57.133Z,5.22
2022-08-09T14:21:29.292Z,7.07
2022-08-09T14:23:57.642Z,3.28
2022-08-09T14:26:32.825Z,3.70
2022-08-09T14:29:07.511Z,3.75
2022-08-09T14:31:51.860Z,6.60
2022-08-09T14:34:30.830Z,6.88
2022-08-09T14:37:07.175Z,3.88
2022-08-09T14:39:47.798Z,5.28
2022-08-09T14:42:29.072Z,3.28
2022-08-09T14:45:01.750Z,4.05
2022-08-09T14:47:57.995Z,3.90
2022-08-09T14:50:31.292Z,4.03
2022-08-09T14:53:11.664Z,3.72
2022-08-09T14:55:42.390Z,3.00
2022-08-09T14:58:15.709Z,4.35
2022-08-09T15:00:48.478Z,3.80
2022-08-09T15:03:22.260Z,4.05
2022-08-09T15:05:58.146Z,4.82
2022-08-09T15:08:30.404Z,3.67
2022-08-09T15:11:00.392Z,4.53
2022-08-09T15:13:47.855Z,5.10
2022-08-09T15:16:17.691Z,3.83
2022-08-09T15:18:48.324Z,3.53
2022-08-09T15:21:56.132Z,6.55
2022-08-09T15:24:12.429Z,4.47
2022-08-09T15:26:45.528Z,3.65
2022-08-09T15:30:57.362Z,3.83
2022-08-09T15:32:02.258Z,2.63
2022-08-09T15:34:34.215Z,3.35
2022-08-09T15:37:04.150Z,4.78
2022-08-09T15:39:34.789Z,2.92
2022-08-09T15:42:19.036Z,3.83
2022-08-09T15:44:46.969Z,2.95
2022-08-09T15:47:23.536Z,3.72
2022-08-09T15:50:04.209Z,3.75
2022-08-09T15:52:37.819Z,3.08
2022-08-09T15:55:08.447Z,3.00
2022-08-09T15:57:44.378Z,2.65
2022-08-09T16:00:25.791Z,3.88
2022-08-09T16:02:56.141Z,2.95
2022-08-09T16:05:36.325Z,4.55
2022-08-09T16:08:24.734Z,2.88
2022-08-09T16:11:02.625Z,2.30
2022-08-09T16:14:05.135Z,5.68
2022-08-09T16:16:26.231Z,3.40
2022-08-09T16:18:56.594Z,3.17
2022-08-09T16:21:25.854Z,3.67
2022-08-09T16:23:58.567Z,4.30
2022-08-09T16:26:34.669Z,2.85
2022-08-09T16:29:11.084Z,4.15
2022-08-09T16:32:18.882Z,3.45
2022-08-09T16:34:53.548Z,2.92
2022-08-09T16:37:54.786Z,6.30
2022-08-09T16:40:12.813Z,4.20
2022-08-09T16:42:45.438Z,5.93
2022-08-09T16:45:17.737Z,3.78
2022-08-09T16:50:34.467Z,4.45
2022-08-09T16:53:03.308Z,2.85
2022-08-09T16:55:57.924Z,3.87
2022-08-09T16:58:21.347Z,4.18
2022-08-09T17:00:50.991Z,3.58
2022-08-09T17:03:21.954Z,3.00
2022-08-09T17:06:07.353Z,2.83
2022-08-09T17:09:02.953Z,2.63
2022-08-09T17:11:41.351Z,4.72
2022-08-09T17:14:25.606Z,3.40
2022-08-09T17:17:01.795Z,3.92
2022-08-09T17:19:47.517Z,4.65
2022-08-09T17:22:24.866Z,3.30
2022-08-09T17:25:03.262Z,2.65
2022-08-09T17:27:33.142Z,5.35
2022-08-09T17:30:06.941Z,3.72
2022-08-09T17:32:40.183Z,5.30
2022-08-09T17:35:13.291Z,5.00
2022-08-09T17:38:12.603Z,3.22
2022-08-09T17:40:30.420Z,2.72
2022-08-09T17:43:10.939Z,5.05
2022-08-09T17:46:02.891Z,3.35
2022-08-09T17:48:32.038Z,2.83
2022-08-09T17:51:09.492Z,5.60
2022-08-09T17:53:51.572Z,4.53
2022-08-09T17:56:26.657Z,3.10
2022-08-09T17:59:03.128Z,4.75
2022-08-09T18:01:57.950Z,4.15
2022-08-09T18:04:20.327Z,5.88
2022-08-09T18:06:54.311Z,3.72
2022-08-09T18:09:23.731Z,3.75
2022-08-09T18:12:15.317Z,3.83
2022-08-09T18:14:49.805Z,3.35
2022-08-09T18:18:01.685Z,3.85
2022-08-09T18:20:59.397Z,3.95
2022-08-09T18:22:57.113Z,3.80
2022-08-09T18:25:50.493Z,3.70
2022-08-09T18:30:33.853Z,2.60
2022-08-09T18:31:02.230Z,3.42
2022-08-09T18:33:30.212Z,3.45
2022-08-09T18:36:02.451Z,2.13
2022-08-09T18:38:30.138Z,1.90
2022-08-09T18:40:58.793Z,2.08
2022-08-09T18:43:26.283Z,1.75
2022-08-09T18:46:46.217Z,2.90
2022-08-09T18:48:42.427Z,2.92
2022-08-09T18:51:10.771Z,1.58
2022-08-09T18:54:01.873Z,1.27
2022-08-09T18:56:27.146Z,1.98
2022-08-09T18:58:57.255Z,2.83
2022-08-09T19:01:25.893Z,2.55
2022-08-09T19:04:01.161Z,3.28
2022-08-09T19:06:35.066Z,1.70
2022-08-09T19:09:07.334Z,2.00
2022-08-09T19:11:37.674Z,2.45
2022-08-09T19:14:09.377Z,0.65
2022-08-09T19:16:37.858Z,3.78
2022-08-09T19:19:19.282Z,3.83
2022-08-09T19:22:05.000Z,1.85
2022-08-09T19:25:09.962Z,1.83
2022-08-09T19:27:23.888Z,4.28
2022-08-09T19:30:21.107Z,3.70
2022-08-09T19:32:44.554Z,0.68
2022-08-09T19:35:12.017Z,2.35
2022-08-09T19:37:56.319Z,1.38
2022-08-09T19:40:34.393Z,2.65
2022-08-09T19:43:05.190Z,5.13
2022-08-09T19:45:40.414Z,1.15
2022-08-09T19:50:51.116Z,1.15
2022-08-09T19:53:22.715Z,0.80
2022-08-09T19:56:03.206Z,2.67
2022-08-09T19:58:34.664Z,1.17
2022-08-09T20:01:02.799Z,1.50
2022-08-09T20:04:18.172Z,2.15
2022-08-09T20:06:23.807Z,2.13
2022-08-09T20:08:57.586Z,1.95
2022-08-09T20:11:43.149Z,2.20
2022-08-09T20:14:15.790Z,0.95
2022-08-09T20:16:53.943Z,0.50
2022-08-09T20:19:48.924Z,0.70
2022-08-09T20:22:14.193Z,2.47
2022-08-09T20:24:42.710Z,1.03
2022-08-09T20:27:21.670Z,0.73
2022-08-09T20:29:49.682Z,0.95
2022-08-09T20:32:29.949Z,1.33
2022-08-09T20:34:59.487Z,0.50
2022-08-09T20:37:37.069Z,0.98
2022-08-09T20:40:18.855Z,2.60
2022-08-09T20:42:59.940Z,0.85
2022-08-09T20:46:01.767Z,1.08
2022-08-09T20:48:31.038Z,2.63
2022-08-09T20:51:03.201Z,2.72
2022-08-09T20:53:36.519Z,2.65
2022-08-09T20:56:07.005Z,2.50
2022-08-09T20:58:38.154Z,0.60
2022-08-09T21:01:33.603Z,2.53
2022-08-09T21:05:52.442Z,0.60
2022-08-09T21:06:44.477Z,1.27
2022-08-09T21:09:14.069Z,2.80
2022-08-09T21:14:31.139Z,0.90
2022-08-09T21:17:00.584Z,1.05
2022-08-09T21:20:18.877Z,1.70
2022-08-09T21:22:35.763Z,2.17
2022-08-09T21:25:21.672Z,2.88
2022-08-09T21:27:52.418Z,0.98
2022-08-09T21:30:22.180Z,2.35
2022-08-09T21:32:50.841Z,0.95
2022-08-09T21:35:21.644Z,2.15
2022-08-09T21:37:59.541Z,1.88
2022-08-09T21:40:30.608Z,1.63
2022-08-09T21:42:59.755Z,2.50
2022-08-09T21:45:28.535Z,1.30
2022-08-09T21:47:58.340Z,2.25
2022-08-09T21:50:38.452Z,1.58
2022-08-09T21:53:27.577Z,2.45
2022-08-09T21:55:56.925Z,1.10
2022-08-09T21:58:30.932Z,1.92
2022-08-09T22:00:59.378Z,2.35
2022-08-09T22:03:27.807Z,2.13
2022-08-09T22:05:58.065Z,3.70
2022-08-09T22:08:28.541Z,0.98
2022-08-09T22:11:49.711Z,1.88
2022-08-09T22:13:44.090Z,1.70
2022-08-09T22:16:12.158Z,1.48
2022-08-09T22:18:53.758Z,0.40
2022-08-09T22:21:27.420Z,1.58
2022-08-09T22:24:16.890Z,1.02
2022-08-09T22:26:51.012Z,1.17
2022-08-09T22:29:24.049Z,0.50
2022-08-09T22:31:58.000Z,0.47
2022-08-09T22:34:27.027Z,0.82
2022-08-09T22:36:56.175Z,1.15
2022-08-09T22:39:55.887Z,2.35
2022-08-09T22:42:21.010Z,2.55
2022-08-09T22:45:00.310Z,0.73
2022-08-09T22:48:12.785Z,2.85
2022-08-09T22:50:26.992Z,1.15
2022-08-09T22:52:58.331Z,2.22
2022-08-09T22:55:39.618Z,3.30
2022-08-09T22:58:20.377Z,2.55
2022-08-09T23:01:06.027Z,2.80
2022-08-09T23:04:03.993Z,2.63
2022-08-09T23:06:35.229Z,1.38
2022-08-09T23:09:06.321Z,0.80
2022-08-09T23:11:33.688Z,1.27
2022-08-09T23:14:03.313Z,1.42
2022-08-09T23:16:31.574Z,1.00
2022-08-09T23:18:58.893Z,0.75
2022-08-09T23:21:30.091Z,1.23
2022-08-09T23:24:06.289Z,3.10
2022-08-09T23:26:37.958Z,1.95
2022-08-09T23:29:07.277Z,1.25
2022-08-09T23:31:34.619Z,0.80
2022-08-09T23:34:02.476Z,1.90
2022-08-09T23:36:30.113Z,1.90
2022-08-09T23:38:57.600Z,0.95
2022-08-09T23:41:28.380Z,2.13
2022-08-09T23:44:00.584Z,2.13
2022-08-09T23:46:29.517Z,3.15
2022-08-09T23:48:58.092Z,4.18
2022-08-09T23:51:26.169Z,1.20
2022-08-09T23:53:55.178Z,2.45
2022-08-09T23:56:52.833Z,2.55
2022-08-09T23:59:18.005Z,1.52
